Terminal Aerodrome Forecast
Issued by NWS

Home | Current Version | Previous Version | Text Only | Print | Product List | Glossary On
Versions: 1 2 3 4 5 6 7 8 9 10 11 12 13
000
FTUS45 KTFX 191720
TAFBZN
TAF
KBZN 191720Z 1918/2024 VRB06KT 3SM -SN BR SCT003 OVC025
      TEMPO 1918/1922 1SM -SN BR OVC003
     FM192300 VRB06KT P6SM SCT005 BKN030
      TEMPO 2011/2015 3SM BR SCT002
     FM201900 VRB06KT P6SM SCT030 BKN050=

USA.gov is the U.S. government's official web portal to all federal, state and local government web resources and services.